Granby, Colorado
Current Conditions -  °F | °C
As of 10:54 PM on Monday 26 Jan 2015 (Local Time) from K0CO Reporting Station
Clear Clear  
Wind Chill: 25°   Ceiling: Unl
Heat Index: 32°   Visibility: 10mi
Dew Point: 28°   Wind: 8mph
Humidity: 87%   Direction: 230°SW
Pressure: 30.59"   Gusts: NA
Location:  40.09°N, 105.94°W
Report Text: K0CO 270554Z AUTO 23007KT 10SM CLR 00/M02 A3059 RMK AO2
Loading
Personal Weather Stations






























Interactive Weather Map New forecast layout! Learn more

10-Day Weather Forecast

Advertisements
Track Severe Weather on mobile